UAL2533 GOBD-KIND
Flight info
| Callsign | UAL2533 |
|---|---|
| Flight time | N/A |
| Altitude | 32000 |
| Route | LIGOV1B LIGOV DCT LUMPO UR976 GAMBA/M083F320 UR976 ULTEM DCT 24N034W 28N039W 31N044W 34N050W 36N056W 39N062W/N0465F320 DCT BORQE DCT BORQE DCT SEY Q220 ALBOW Q167 RIFLE Q430 LARRI J110 BEETS Q430 VINSE J110 AIR Q430 ZANDR J110 EMPTY CLANG7 |
| Aircraft | B77W/H-SDE1E2E3FGHIJ2J3J4J5M1RWXY/LB1D1 |
Departure
| Time | 2026-04-26 04:18 |
|---|---|
| Airport | Blaise Diagne International Airport (GOBD) |
Arrival
| Time | N/A |
|---|---|
| Airport | Indianapolis International Airport (KIND) |
| Time | Latitude | Longitude | Altitude | Speed | Heading |
|---|---|---|---|---|---|
| 2026-04-26 03:55 | 14.67079 | -17.06858 | 301 ft | 0 kts | 89° |
| 2026-04-26 04:07 | 14.67079 | -17.06865 | 300 ft | 2 kts | 91° |
| 2026-04-26 04:08 | 14.67080 | -17.06886 | 298 ft | 3 kts | 99° |
| 2026-04-26 04:08 | 14.67084 | -17.06906 | 301 ft | 3 kts | 108° |
| 2026-04-26 04:08 | 14.67091 | -17.06925 | 297 ft | 3 kts | 119° |
| 2026-04-26 04:08 | 14.67102 | -17.06943 | 298 ft | 3 kts | 131° |
| 2026-04-26 04:09 | 14.67116 | -17.06957 | 297 ft | 3 kts | 143° |
| 2026-04-26 04:09 | 14.67133 | -17.06968 | 301 ft | 3 kts | 155° |
| 2026-04-26 04:09 | 14.67152 | -17.06976 | 297 ft | 3 kts | 167° |
| 2026-04-26 04:09 | 14.67172 | -17.06979 | 297 ft | 3 kts | 177° |
| 2026-04-26 04:10 | 14.67181 | -17.06980 | 297 ft | 0 kts | 179° |
| 2026-04-26 04:12 | 14.67118 | -17.06986 | 298 ft | 14 kts | 203° |
| 2026-04-26 04:12 | 14.67061 | -17.07066 | 303 ft | 14 kts | 231° |
| 2026-04-26 04:13 | 14.66971 | -17.07091 | 302 ft | 14 kts | 178° |
| 2026-04-26 04:13 | 14.66873 | -17.07089 | 299 ft | 14 kts | 178° |
| 2026-04-26 04:13 | 14.66775 | -17.07087 | 302 ft | 14 kts | 179° |
| 2026-04-26 04:13 | 14.66677 | -17.07086 | 300 ft | 14 kts | 181° |
| 2026-04-26 04:14 | 14.66580 | -17.07087 | 299 ft | 14 kts | 179° |
| 2026-04-26 04:14 | 14.66482 | -17.07086 | 297 ft | 14 kts | 180° |
| 2026-04-26 04:14 | 14.66384 | -17.07086 | 296 ft | 14 kts | 180° |
| 2026-04-26 04:14 | 14.66286 | -17.07084 | 296 ft | 14 kts | 178° |
| 2026-04-26 04:15 | 14.66188 | -17.07082 | 298 ft | 14 kts | 179° |
| 2026-04-26 04:15 | 14.66091 | -17.07080 | 293 ft | 14 kts | 179° |
| 2026-04-26 04:15 | 14.65993 | -17.07078 | 292 ft | 14 kts | 179° |
| 2026-04-26 04:15 | 14.65895 | -17.07077 | 294 ft | 14 kts | 179° |
| 2026-04-26 04:16 | 14.65797 | -17.07075 | 289 ft | 14 kts | 181° |
| 2026-04-26 04:16 | 14.65700 | -17.07078 | 288 ft | 14 kts | 182° |
| 2026-04-26 04:16 | 14.65602 | -17.07078 | 285 ft | 14 kts | 180° |
| 2026-04-26 04:16 | 14.65532 | -17.07142 | 283 ft | 15 kts | 259° |
| 2026-04-26 04:17 | 14.65553 | -17.07244 | 284 ft | 15 kts | 312° |
| 2026-04-26 04:17 | 14.65685 | -17.07268 | 286 ft | 40 kts | 359° |
| 2026-04-26 04:17 | 14.66252 | -17.07273 | 294 ft | 121 kts | 359° |
| 2026-04-26 04:17 | 14.67340 | -17.07281 | 324 ft | 187 kts | 0° |
| 2026-04-26 04:18 | 14.68646 | -17.07263 | 1052 ft | 181 kts | 359° |
| 2026-04-26 04:18 | 14.69919 | -17.07277 | 1883 ft | 187 kts | 359° |
| 2026-04-26 04:18 | 14.71270 | -17.07297 | 2240 ft | 207 kts | 359° |
| 2026-04-26 04:18 | 14.72785 | -17.07315 | 2466 ft | 229 kts | 359° |
| 2026-04-26 04:19 | 14.74425 | -17.07332 | 2974 ft | 239 kts | 359° |
| 2026-04-26 04:19 | 14.76124 | -17.07348 | 3555 ft | 248 kts | 359° |
| 2026-04-26 04:19 | 14.77876 | -17.07365 | 4167 ft | 255 kts | 359° |
| 2026-04-26 04:19 | 14.79678 | -17.07386 | 4816 ft | 262 kts | 359° |
| 2026-04-26 04:20 | 14.81496 | -17.07411 | 5422 ft | 268 kts | 359° |
| 2026-04-26 04:20 | 14.83388 | -17.07434 | 6010 ft | 276 kts | 360° |
| 2026-04-26 04:20 | 14.85330 | -17.07449 | 6603 ft | 282 kts | 360° |
| 2026-04-26 04:20 | 14.87308 | -17.07468 | 7258 ft | 285 kts | 359° |
| 2026-04-26 04:21 | 14.89280 | -17.07642 | 7777 ft | 288 kts | 341° |
| 2026-04-26 04:21 | 14.90970 | -17.08738 | 8221 ft | 293 kts | 310° |
| 2026-04-26 04:21 | 14.91988 | -17.10550 | 8863 ft | 293 kts | 289° |
| 2026-04-26 04:21 | 14.92560 | -17.12571 | 9500 ft | 294 kts | 284° |
| 2026-04-26 04:22 | 14.93069 | -17.14624 | 10105 ft | 298 kts | 283° |
| 2026-04-26 04:22 | 14.93579 | -17.16767 | 10381 ft | 316 kts | 283° |
| 2026-04-26 04:22 | 14.94116 | -17.19051 | 10550 ft | 337 kts | 282° |
| 2026-04-26 04:22 | 14.94689 | -17.21480 | 10724 ft | 358 kts | 282° |
| 2026-04-26 04:23 | 14.95297 | -17.24044 | 11016 ft | 374 kts | 282° |
| 2026-04-26 04:23 | 14.95928 | -17.26690 | 11551 ft | 383 kts | 282° |
| 2026-04-26 04:23 | 14.96576 | -17.29376 | 12295 ft | 385 kts | 282° |
| 2026-04-26 04:23 | 14.97224 | -17.32065 | 13132 ft | 386 kts | 282° |
| 2026-04-26 04:24 | 14.97878 | -17.34767 | 13916 ft | 388 kts | 282° |
| 2026-04-26 04:24 | 14.98537 | -17.37484 | 14634 ft | 392 kts | 282° |
| 2026-04-26 04:24 | 14.99202 | -17.40228 | 15323 ft | 395 kts | 283° |
| 2026-04-26 04:24 | 14.99873 | -17.42992 | 16013 ft | 397 kts | 283° |
| 2026-04-26 04:25 | 15.00545 | -17.45764 | 16708 ft | 399 kts | 283° |
| 2026-04-26 04:25 | 15.01221 | -17.48558 | 17350 ft | 402 kts | 283° |
| 2026-04-26 04:25 | 15.01900 | -17.51369 | 17968 ft | 404 kts | 283° |
| 2026-04-26 04:25 | 15.02584 | -17.54200 | 18579 ft | 407 kts | 283° |
| 2026-04-26 04:26 | 15.03272 | -17.57058 | 19123 ft | 411 kts | 283° |
| 2026-04-26 04:26 | 15.03970 | -17.59943 | 19630 ft | 416 kts | 283° |
| 2026-04-26 04:26 | 15.04673 | -17.62857 | 20111 ft | 420 kts | 283° |
| 2026-04-26 04:26 | 15.05385 | -17.65804 | 20632 ft | 423 kts | 283° |
| 2026-04-26 04:27 | 15.06101 | -17.68769 | 21134 ft | 427 kts | 283° |
| 2026-04-26 04:27 | 15.06813 | -17.71719 | 21587 ft | 430 kts | 283° |
| 2026-04-26 04:27 | 15.07548 | -17.74774 | 22038 ft | 434 kts | 283° |
| 2026-04-26 04:27 | 15.08268 | -17.77778 | 22451 ft | 438 kts | 283° |
| 2026-04-26 04:28 | 15.09004 | -17.80843 | 22889 ft | 440 kts | 283° |
| 2026-04-26 04:28 | 15.09746 | -17.83931 | 23319 ft | 443 kts | 283° |
| 2026-04-26 04:28 | 15.10503 | -17.87079 | 23736 ft | 447 kts | 283° |
| 2026-04-26 04:28 | 15.11256 | -17.90215 | 24113 ft | 451 kts | 283° |
| 2026-04-26 04:29 | 15.12002 | -17.93327 | 24519 ft | 453 kts | 283° |
| 2026-04-26 04:29 | 15.12759 | -17.96490 | 24970 ft | 453 kts | 283° |
| 2026-04-26 04:29 | 15.13517 | -17.99660 | 25438 ft | 454 kts | 283° |
| 2026-04-26 04:29 | 15.14276 | -18.02836 | 25870 ft | 455 kts | 283° |
| 2026-04-26 04:30 | 15.15036 | -18.06016 | 26300 ft | 455 kts | 284° |
| 2026-04-26 04:30 | 15.15797 | -18.09200 | 26685 ft | 457 kts | 284° |
| 2026-04-26 04:30 | 15.16562 | -18.12396 | 27059 ft | 458 kts | 284° |
| 2026-04-26 04:30 | 15.17327 | -18.15601 | 27423 ft | 459 kts | 284° |
| 2026-04-26 04:31 | 15.18094 | -18.18814 | 27785 ft | 460 kts | 284° |
| 2026-04-26 04:31 | 15.18860 | -18.22034 | 28143 ft | 461 kts | 284° |
| 2026-04-26 04:31 | 15.19628 | -18.25262 | 28475 ft | 462 kts | 284° |
| 2026-04-26 04:31 | 15.20399 | -18.28497 | 28757 ft | 464 kts | 284° |
| 2026-04-26 04:32 | 15.21171 | -18.31742 | 29054 ft | 465 kts | 284° |
| 2026-04-26 04:32 | 15.21945 | -18.34994 | 29353 ft | 466 kts | 284° |
| 2026-04-26 04:32 | 15.22717 | -18.38249 | 29681 ft | 465 kts | 284° |
| 2026-04-26 04:32 | 15.23487 | -18.41490 | 30098 ft | 462 kts | 284° |
| 2026-04-26 04:33 | 15.24251 | -18.44710 | 30519 ft | 459 kts | 284° |
| 2026-04-26 04:33 | 15.25008 | -18.47910 | 30935 ft | 457 kts | 284° |
| 2026-04-26 04:33 | 15.25765 | -18.51106 | 31278 ft | 456 kts | 284° |
| 2026-04-26 04:33 | 15.26516 | -18.54287 | 31625 ft | 455 kts | 284° |
| 2026-04-26 04:34 | 15.27269 | -18.57465 | 31954 ft | 454 kts | 284° |
| 2026-04-26 04:34 | 15.28020 | -18.60637 | 32266 ft | 453 kts | 284° |
| 2026-04-26 04:34 | 15.28768 | -18.63801 | 32567 ft | 452 kts | 284° |
| 2026-04-26 04:34 | 15.29513 | -18.66958 | 32904 ft | 450 kts | 283° |
| 2026-04-26 04:35 | 15.30255 | -18.70107 | 33205 ft | 450 kts | 283° |
| 2026-04-26 04:35 | 15.30997 | -18.73251 | 33480 ft | 449 kts | 283° |
| 2026-04-26 04:35 | 15.31738 | -18.76396 | 33753 ft | 449 kts | 283° |
| 2026-04-26 04:36 | 15.33225 | -18.82705 | 33866 ft | 451 kts | 283° |
| 2026-04-26 04:36 | 15.34702 | -18.88989 | 33879 ft | 447 kts | 283° |
| 2026-04-26 04:37 | 15.35917 | -18.94176 | 33879 ft | 445 kts | 283° |
| 2026-04-26 04:37 | 15.37374 | -19.00393 | 33879 ft | 444 kts | 283° |
| 2026-04-26 04:38 | 15.38829 | -19.06609 | 33892 ft | 444 kts | 283° |
| 2026-04-26 04:38 | 15.40286 | -19.12835 | 33893 ft | 445 kts | 283° |
| 2026-04-26 04:39 | 15.41743 | -19.19082 | 33893 ft | 447 kts | 283° |
| 2026-04-26 04:39 | 15.43204 | -19.25346 | 33888 ft | 448 kts | 283° |
| 2026-04-26 04:40 | 15.44664 | -19.31623 | 33887 ft | 448 kts | 283° |
| 2026-04-26 04:40 | 15.46124 | -19.37914 | 33888 ft | 449 kts | 283° |
| 2026-04-26 04:41 | 15.47830 | -19.44144 | 33886 ft | 450 kts | 289° |
| 2026-04-26 04:41 | 15.50085 | -19.50191 | 33885 ft | 450 kts | 290° |
| 2026-04-26 04:42 | 15.52359 | -19.56220 | 33894 ft | 449 kts | 289° |
| 2026-04-26 04:42 | 15.54555 | -19.62263 | 33900 ft | 447 kts | 289° |
| 2026-04-26 04:43 | 15.56715 | -19.68309 | 33896 ft | 446 kts | 289° |
| 2026-04-26 04:43 | 15.58850 | -19.74296 | 33894 ft | 446 kts | 289° |
| 2026-04-26 04:44 | 15.61001 | -19.80321 | 33897 ft | 445 kts | 289° |
| 2026-04-26 04:44 | 15.63147 | -19.86348 | 33901 ft | 445 kts | 289° |
| 2026-04-26 04:45 | 15.65293 | -19.92376 | 33902 ft | 446 kts | 289° |
| 2026-04-26 04:45 | 15.67440 | -19.98414 | 33907 ft | 446 kts | 289° |
| 2026-04-26 04:46 | 15.69620 | -20.04444 | 33907 ft | 447 kts | 289° |
| 2026-04-26 04:46 | 15.71851 | -20.10466 | 33908 ft | 447 kts | 289° |
| 2026-04-26 04:47 | 15.74079 | -20.16490 | 33905 ft | 447 kts | 289° |
| 2026-04-26 04:47 | 15.76300 | -20.22524 | 33907 ft | 447 kts | 289° |
| 2026-04-26 04:48 | 15.79616 | -20.31568 | 33917 ft | 447 kts | 289° |
| 2026-04-26 04:48 | 15.81828 | -20.37603 | 33915 ft | 447 kts | 289° |
| 2026-04-26 04:49 | 15.84035 | -20.43630 | 33918 ft | 446 kts | 289° |
| 2026-04-26 04:49 | 15.86236 | -20.49659 | 33917 ft | 446 kts | 289° |
| 2026-04-26 04:50 | 15.88437 | -20.55688 | 33916 ft | 446 kts | 289° |
| 2026-04-26 04:50 | 15.90639 | -20.61719 | 33917 ft | 446 kts | 289° |
| 2026-04-26 04:51 | 15.92838 | -20.67748 | 33921 ft | 447 kts | 289° |
| 2026-04-26 04:51 | 15.95038 | -20.73786 | 33927 ft | 447 kts | 289° |
| 2026-04-26 04:52 | 15.97238 | -20.79833 | 33926 ft | 447 kts | 290° |
| 2026-04-26 04:52 | 15.99422 | -20.85842 | 33925 ft | 448 kts | 290° |
| 2026-04-26 04:53 | 16.01619 | -20.91891 | 33936 ft | 447 kts | 290° |
| 2026-04-26 04:53 | 16.03806 | -20.97921 | 33922 ft | 445 kts | 290° |
| 2026-04-26 04:54 | 16.05979 | -21.03914 | 33921 ft | 442 kts | 290° |
| 2026-04-26 04:54 | 16.08143 | -21.09889 | 33926 ft | 441 kts | 290° |
| 2026-04-26 04:55 | 16.10299 | -21.15848 | 33933 ft | 440 kts | 290° |
| 2026-04-26 04:55 | 16.12447 | -21.21799 | 33936 ft | 440 kts | 290° |
| 2026-04-26 04:56 | 16.14600 | -21.27763 | 33935 ft | 441 kts | 290° |
| 2026-04-26 04:56 | 16.16757 | -21.33741 | 33949 ft | 442 kts | 290° |
| 2026-04-26 04:57 | 16.18917 | -21.39740 | 33947 ft | 443 kts | 290° |
| 2026-04-26 04:57 | 16.21076 | -21.45746 | 33944 ft | 444 kts | 290° |
| 2026-04-26 04:58 | 16.23240 | -21.51764 | 33935 ft | 444 kts | 290° |
| 2026-04-26 04:58 | 16.25402 | -21.57790 | 33948 ft | 445 kts | 290° |
| 2026-04-26 04:59 | 16.27563 | -21.63820 | 33951 ft | 445 kts | 290° |
| 2026-04-26 04:59 | 16.29727 | -21.69853 | 33937 ft | 445 kts | 290° |
| 2026-04-26 05:00 | 16.31872 | -21.75890 | 33947 ft | 445 kts | 290° |
| 2026-04-26 05:00 | 16.34009 | -21.81929 | 33943 ft | 444 kts | 290° |
| 2026-04-26 05:01 | 16.36148 | -21.87971 | 33946 ft | 444 kts | 290° |
| 2026-04-26 05:01 | 16.38268 | -21.93959 | 33938 ft | 443 kts | 290° |
| 2026-04-26 05:02 | 16.40397 | -21.99988 | 33953 ft | 444 kts | 290° |
| 2026-04-26 05:02 | 16.42526 | -22.06019 | 33958 ft | 444 kts | 290° |
| 2026-04-26 05:03 | 16.44655 | -22.12054 | 33958 ft | 444 kts | 290° |
| 2026-04-26 05:03 | 16.46778 | -22.18084 | 33957 ft | 443 kts | 290° |
| 2026-04-26 05:04 | 16.48899 | -22.24115 | 33948 ft | 443 kts | 290° |
| 2026-04-26 05:04 | 16.51018 | -22.30142 | 33959 ft | 443 kts | 290° |
| 2026-04-26 05:05 | 16.53131 | -22.36165 | 33961 ft | 442 kts | 290° |
| 2026-04-26 05:05 | 16.55244 | -22.42183 | 33949 ft | 442 kts | 290° |
| 2026-04-26 05:06 | 16.57348 | -22.48189 | 33955 ft | 441 kts | 290° |
| 2026-04-26 05:06 | 16.59448 | -22.54189 | 33958 ft | 440 kts | 290° |
| 2026-04-26 05:07 | 16.61544 | -22.60180 | 33950 ft | 440 kts | 290° |
| 2026-04-26 05:07 | 16.63633 | -22.66166 | 33958 ft | 439 kts | 290° |
| 2026-04-26 05:08 | 16.65719 | -22.72150 | 33960 ft | 438 kts | 290° |
| 2026-04-26 05:08 | 16.67802 | -22.78120 | 33964 ft | 438 kts | 290° |
| 2026-04-26 05:09 | 16.69863 | -22.84051 | 33966 ft | 438 kts | 290° |
| 2026-04-26 05:09 | 16.71941 | -22.90022 | 33961 ft | 438 kts | 290° |
| 2026-04-26 05:10 | 16.74560 | -22.95749 | 33965 ft | 438 kts | 299° |
| 2026-04-26 05:10 | 16.77970 | -23.01027 | 33968 ft | 439 kts | 305° |
| 2026-04-26 05:11 | 16.81704 | -23.06077 | 33964 ft | 440 kts | 306° |
| 2026-04-26 05:11 | 16.85435 | -23.11131 | 33965 ft | 439 kts | 306° |
| 2026-04-26 05:12 | 16.89150 | -23.16193 | 33968 ft | 439 kts | 306° |
| 2026-04-26 05:12 | 16.92856 | -23.21265 | 33962 ft | 439 kts | 305° |
| 2026-04-26 05:13 | 16.96551 | -23.26331 | 33964 ft | 439 kts | 305° |
| 2026-04-26 05:13 | 17.00250 | -23.31399 | 33963 ft | 437 kts | 305° |
| 2026-04-26 05:14 | 17.03933 | -23.36458 | 33965 ft | 437 kts | 305° |
| 2026-04-26 05:14 | 17.07587 | -23.41475 | 33964 ft | 436 kts | 305° |
| 2026-04-26 05:15 | 17.11260 | -23.46526 | 33966 ft | 436 kts | 305° |
| 2026-04-26 05:15 | 17.14931 | -23.51574 | 33967 ft | 436 kts | 305° |
| 2026-04-26 05:16 | 17.18595 | -23.56618 | 33971 ft | 435 kts | 305° |
| 2026-04-26 05:16 | 17.22283 | -23.61698 | 33976 ft | 435 kts | 305° |
| 2026-04-26 05:17 | 17.25941 | -23.66740 | 33971 ft | 435 kts | 305° |
| 2026-04-26 05:17 | 17.29565 | -23.71741 | 33973 ft | 434 kts | 305° |
| 2026-04-26 05:18 | 17.33208 | -23.76769 | 33975 ft | 433 kts | 305° |
| 2026-04-26 05:18 | 17.36845 | -23.81793 | 33973 ft | 432 kts | 305° |
| 2026-04-26 05:19 | 17.40474 | -23.86810 | 33966 ft | 432 kts | 305° |
| 2026-04-26 05:19 | 17.44098 | -23.91829 | 33974 ft | 432 kts | 305° |
| 2026-04-26 05:20 | 17.47720 | -23.96843 | 33975 ft | 431 kts | 305° |
| 2026-04-26 05:20 | 17.51338 | -24.01853 | 33969 ft | 431 kts | 305° |
| 2026-04-26 05:21 | 17.54946 | -24.06858 | 33975 ft | 430 kts | 305° |
| 2026-04-26 05:21 | 17.58548 | -24.11858 | 33982 ft | 430 kts | 305° |
| 2026-04-26 05:22 | 17.62147 | -24.16860 | 33982 ft | 430 kts | 305° |
| 2026-04-26 05:22 | 17.65743 | -24.21861 | 33982 ft | 430 kts | 305° |
| 2026-04-26 05:23 | 17.69341 | -24.26870 | 33983 ft | 430 kts | 305° |
| 2026-04-26 05:23 | 17.72941 | -24.31880 | 33982 ft | 430 kts | 305° |
| 2026-04-26 05:24 | 17.76521 | -24.36907 | 33982 ft | 430 kts | 304° |
| 2026-04-26 05:24 | 17.79492 | -24.41093 | 33981 ft | 430 kts | 304° |
| 2026-04-26 05:25 | 17.83069 | -24.46131 | 33981 ft | 430 kts | 304° |
| 2026-04-26 05:25 | 17.86646 | -24.51174 | 33983 ft | 431 kts | 304° |
| 2026-04-26 05:26 | 17.90219 | -24.56224 | 33981 ft | 431 kts | 304° |
| 2026-04-26 05:26 | 17.93795 | -24.61278 | 33981 ft | 431 kts | 304° |